Main page
METAR-TAF:

METAR-TAF

Airports :

Paya Lebar Air Base

Singapore, Singapore

latitude: 01-22N, longitude: 103-55E, elevation: 18 m

Current weather observation

The report was made 21 minutes ago, at 14:00 UTC
Wind 6 kt from the South/Southeast
Temperature 29°C
Humidity 74%
Pressure 1011 hPa
Visibility 10 km or more
Few clouds at a height of 1800 ft
Broken clouds at a height of 30000 ft

METAR: WSAP 171400Z 15006KT 9999 FEW018 BKN300 29/24 Q1011

Time: 22:21 (14:21 UTC)

Forecast

The report was made 3 hours and 21 minutes ago, at 11:00 UTC
Forecast valid from 17 at 12 UTC to 18 at 18 UTC
Wind 10 kt from the South/Southeast
Visibility 10 km or more
Few clouds at a height of 1500 ft
Scattered clouds at a height of 2000 ft

TAF: WSAP 171100Z 1712/1818 16010KT 9999 FEW015 SCT020

Weather observations and forecasts of more than 4000 airports (METAR and TAF reports).

The available stations are represented by yellow and red dots on the map.

Hover mouse over dot to see the name of the station.

Then click to see weather observations and forecasts.

To change the map : click on the green buttons with a black cross to zoom in, on the green button with a dash to zoom out, or on the green arrows for adjacent maps.


METAR-TAF: